Ty Ty, Georgia
Current Conditions -  °F | °C
As of 2:30 AM on Wednesday 22 Oct 2014 (Local Time) from KTMA Reporting Station
Clear Clear  
Wind Chill: 57°   Ceiling: Unl
Heat Index: 57°   Visibility: 10mi
Dew Point: 53°   Wind: 3mph
Humidity: 87%   Direction: 350°N
Pressure: 29.99"   Gusts: NA
Location:  31.47°N, 83.65°W
Report Text: KTMA 220630Z AUTO 35003KT 10SM CLR 14/12 A2999 RMK AO2 T01370115
Loading
Personal Weather Stations






























Interactive Weather Map
Tropical Storm Tracking
New forecast layout! Learn more

10-Day Weather Forecast

Advertisements
Track Severe Weather on mobile